Time;durP1;ratioP1;P1;durP2;ratioP2;P2;SDS_P1;SDS_P2;PMS_P1;PMS_P2;Temp;Humidity;BMP_temperature;BMP_pressure;BME280_temperature;BME280_humidity;BME280_pressure;Samples;Min_cycle;Max_cycle;Signal;HPM_P1;HPM_P2
2021/04/13 00:00:32;;;;;;;17.55;12.57;;;;;;;19.58;41.95;94575.84;4993992;28;96891;-61
2021/04/13 00:03:07;;;;;;;16.73;11.65;;;;;;;19.58;41.78;94571.16;4994228;28;99895;-61
2021/04/13 00:05:40;;;;;;;14.63;11.80;;;;;;;19.54;41.85;94568.41;4994064;28;99148;-61
2021/04/13 00:08:19;;;;;;;16.70;12.30;;;;;;;19.56;41.67;94578.97;4994687;28;96707;-61
2021/04/13 00:10:53;;;;;;;13.27;11.35;;;;;;;19.56;41.44;94584.44;4994720;28;97759;-61
2021/04/13 00:13:19;;;;;;;15.77;12.25;;;;;;;19.55;41.59;94582.88;4993868;28;98459;-61
2021/04/13 00:15:48;;;;;;;13.50;10.32;;;;;;;19.55;41.82;94578.22;4992390;28;99527;-61
2021/04/13 00:18:14;;;;;;;15.43;12.07;;;;;;;19.55;41.52;94578.22;4994173;28;96839;-61
2021/04/13 00:21:01;;;;;;;14.77;11.65;;;;;;;19.54;41.54;94576.63;4993225;28;96932;-61
2021/04/13 00:23:27;;;;;;;16.13;11.45;;;;;;;19.53;41.33;94575.06;4993855;28;99540;-61
2021/04/13 00:25:56;;;;;;;14.20;10.50;;;;;;;19.52;41.38;94573.50;5002263;28;98914;-60
2021/04/13 00:28:30;;;;;;;12.52;10.32;;;;;;;19.52;41.40;94573.50;4991003;28;97924;-61
2021/04/13 00:31:02;;;;;;;10.88;9.55;;;;;;;19.53;41.64;94583.28;5003748;28;97029;-61
2021/04/13 00:33:35;;;;;;;11.27;9.45;;;;;;;19.53;41.87;94586.03;5004496;28;100206;-61
2021/04/13 00:36:13;;;;;;;12.27;9.43;;;;;;;19.50;41.72;94581.34;5002845;28;99646;-61
2021/04/13 00:38:40;;;;;;;14.05;10.75;;;;;;;19.50;41.41;94586.03;4986100;28;96873;-61
2021/04/13 00:41:36;;;;;;;13.65;11.10;;;;;;;19.52;41.29;94597.38;5004326;28;96906;-61
2021/04/13 00:44:11;;;;;;;14.25;10.57;;;;;;;19.51;41.56;94598.53;4988272;28;100220;-61
2021/04/13 00:46:48;;;;;;;13.40;10.50;;;;;;;19.51;41.54;94595.81;5002194;28;99560;-61
2021/04/13 00:49:15;;;;;;;13.73;10.60;;;;;;;19.48;41.60;94597.38;5002115;28;96773;-61
2021/04/13 00:51:42;;;;;;;14.38;10.65;;;;;;;19.50;41.55;94597.78;5002258;28;96911;-61
2021/04/13 00:54:11;;;;;;;15.25;11.13;;;;;;;19.51;41.69;94610.31;5004596;28;99513;-61
2021/04/13 00:56:36;;;;;;;13.07;9.45;;;;;;;19.43;41.65;94608.75;4988181;28;99157;-61
2021/04/13 00:59:11;;;;;;;16.23;10.98;;;;;;;19.49;41.35;94609.13;4996464;28;96847;-60
2021/04/13 01:01:37;;;;;;;12.65;8.63;;;;;;;19.51;43.38;94610.31;4980335;28;96860;-61
2021/04/13 01:04:15;;;;;;;10.60;7.60;;;;;;;19.59;45.88;94605.59;4997391;28;99364;-61
2021/04/13 01:06:41;;;;;;;6.88;5.65;;;;;;;19.61;47.18;94602.47;4997153;28;99256;-61
2021/04/13 01:09:20;;;;;;;5.88;4.80;;;;;;;19.63;47.69;94605.59;4997064;28;96693;-61
2021/04/13 01:11:53;;;;;;;3.85;3.50;;;;;;;19.69;48.07;94604.03;4997235;28;96801;-61
2021/04/13 01:14:18;;;;;;;3.67;3.20;;;;;;;19.67;47.97;94592.66;4996841;28;99341;-61
2021/04/13 01:16:49;;;;;;;3.10;2.65;;;;;;;19.72;47.95;94603.22;4979238;28;98935;-61
2021/04/13 01:19:27;;;;;;;2.40;2.28;;;;;;;19.72;48.09;94597.75;4996335;28;96730;-61
2021/04/13 01:22:30;;;;;;;2.30;2.10;;;;;;;19.74;47.80;94600.09;4980475;28;96799;-61
2021/04/13 01:25:15;;;;;;;1.52;1.40;;;;;;;19.74;47.78;94600.84;4986152;28;99460;-62
2021/04/13 01:27:54;;;;;;;1.48;1.02;;;;;;;19.72;47.93;94605.97;4997005;28;99733;-62
2021/04/13 01:30:20;;;;;;;1.45;1.17;;;;;;;19.73;47.65;94599.28;4996329;28;96878;-61
2021/04/13 01:32:46;;;;;;;2.28;2.08;;;;;;;19.73;47.70;94610.25;4979574;28;96994;-62
2021/04/13 01:35:14;;;;;;;3.75;2.70;;;;;;;19.66;49.58;94604.81;4996220;28;99437;-61
2021/04/13 01:38:15;;;;;;;3.35;2.85;;;;;;;19.57;50.03;94607.16;4996720;28;99410;-62
2021/04/13 01:41:01;;;;;;;2.60;2.40;;;;;;;19.46;50.23;94616.16;4996951;28;96634;-61
2021/04/13 01:43:26;;;;;;;1.90;1.80;;;;;;;19.47;49.85;94611.47;4984028;28;96821;-62
2021/04/13 01:45:52;;;;;;;2.05;1.70;;;;;;;19.42;49.77;94612.66;5010032;28;99338;-61
2021/04/13 01:48:17;;;;;;;1.52;1.42;;;;;;;19.43;49.73;94614.22;5014387;28;98958;-62
2021/04/13 01:50:44;;;;;;;0.98;0.98;;;;;;;19.43;49.33;94610.72;4997460;28;96980;-63
2021/04/13 01:53:20;;;;;;;1.20;1.10;;;;;;;19.42;49.24;94609.91;5015980;28;96822;-65
2021/04/13 01:56:07;;;;;;;0.82;0.80;;;;;;;19.40;49.11;94620.47;5016279;28;98719;-64
2021/04/13 01:58:43;;;;;;;0.80;0.80;;;;;;;19.42;49.09;94620.88;5016461;28;99138;-62
2021/04/13 02:01:13;;;;;;;0.60;0.60;;;;;;;19.39;49.11;94618.91;5016705;28;97785;-63
2021/04/13 02:03:44;;;;;;;0.70;0.70;;;;;;;19.32;49.01;94605.22;5015567;28;96893;-64
2021/04/13 02:06:21;;;;;;;0.80;0.80;;;;;;;19.37;48.88;94615.78;5016084;28;99354;-64
2021/04/13 02:08:51;;;;;;;0.55;0.55;;;;;;;19.39;48.59;94616.97;4998826;28;99624;-63
2021/04/13 02:11:22;;;;;;;0.50;0.50;;;;;;;19.34;48.45;94605.59;5015300;28;96695;-63
2021/04/13 02:13:58;;;;;;;0.52;0.52;;;;;;;19.33;48.44;94609.53;4999607;28;96937;-63
2021/04/13 02:16:33;;;;;;;1.17;1.10;;;;;;;19.26;48.44;94622.03;4999395;28;99569;-64
2021/04/13 02:18:59;;;;;;;2.40;1.02;;;;;;;19.37;48.65;94626.75;5015529;28;99367;-63
2021/04/13 02:21:31;;;;;;;0.60;0.60;;;;;;;19.44;48.35;94628.69;4998956;28;96643;-63
2021/04/13 02:24:02;;;;;;;0.57;0.57;;;;;;;19.35;48.57;94618.13;5014059;28;96888;-62
2021/04/13 02:26:27;;;;;;;0.65;0.60;;;;;;;19.42;48.75;94618.13;4994965;28;99949;-62
2021/04/13 02:28:53;;;;;;;0.43;0.43;;;;;;;19.43;48.62;94622.44;5014865;28;99701;-62
2021/04/13 02:31:37;;;;;;;1.38;0.40;;;;;;;19.49;48.66;94618.13;5015181;28;96714;-62
2021/04/13 02:34:18;;;;;;;0.40;0.40;;;;;;;19.50;48.75;94611.47;5015497;28;96892;-62
2021/04/13 02:36:53;;;;;;;0.40;0.40;;;;;;;19.52;48.70;94614.59;4996441;28;99132;-61
2021/04/13 02:39:20;;;;;;;0.30;0.30;;;;;;;19.52;48.91;94616.53;4996026;28;99565;-62
2021/04/13 02:41:55;;;;;;;0.22;0.22;;;;;;;19.44;48.92;94614.97;5012790;28;97182;-61
2021/04/13 02:44:23;;;;;;;0.30;0.30;;;;;;;19.46;48.92;94610.69;5013138;28;97241;-61
2021/04/13 02:46:49;;;;;;;0.20;0.20;;;;;;;19.45;49.15;94617.34;5012233;28;99527;-61
2021/04/13 02:49:16;;;;;;;0.30;0.30;;;;;;;19.44;49.29;94604.81;5012062;28;99571;-61
2021/04/13 02:52:03;;;;;;;0.30;0.30;;;;;;;19.49;49.28;94618.13;5012387;28;97386;-61
2021/04/13 02:54:40;;;;;;;0.30;0.30;;;;;;;19.52;49.21;94611.88;5015036;28;96932;-61
2021/04/13 02:57:14;;;;;;;0.28;0.28;;;;;;;19.45;49.50;94617.34;4998042;28;99554;-61
2021/04/13 02:59:40;;;;;;;0.22;0.22;;;;;;;19.47;49.55;94611.47;5014638;28;98896;-61
2021/04/13 03:02:10;;;;;;;0.20;0.20;;;;;;;19.42;49.54;94623.59;5016112;28;96562;-61
2021/04/13 03:04:48;;;;;;;0.20;0.20;;;;;;;19.38;49.59;94629.09;4998520;28;96958;-61
2021/04/13 03:07:16;;;;;;;0.30;0.30;;;;;;;19.37;49.81;94622.06;5014276;28;99335;-61
2021/04/13 03:09:42;;;;;;;0.20;0.20;;;;;;;19.40;49.76;94620.47;5014510;28;99207;-61
2021/04/13 03:12:08;;;;;;;0.20;0.20;;;;;;;19.44;49.83;94620.47;5014674;28;96730;-61
2021/04/13 03:14:35;;;;;;;0.30;0.30;;;;;;;19.39;49.90;94616.97;5014637;28;97621;-61
2021/04/13 03:17:01;;;;;;;0.20;0.20;;;;;;;19.44;49.96;94609.50;5013007;28;99779;-61
2021/04/13 03:19:27;;;;;;;0.20;0.20;;;;;;;19.41;50.09;94605.59;5015265;28;99741;-61
2021/04/13 03:21:54;;;;;;;0.30;0.30;;;;;;;19.42;49.91;94607.19;4997813;28;96737;-61
2021/04/13 03:24:23;;;;;;;0.30;0.30;;;;;;;19.45;49.82;94606.38;5014596;28;97046;-61
2021/04/13 03:26:53;;;;;;;0.20;0.20;;;;;;;19.46;49.93;94605.22;4997695;28;99317;-61
2021/04/13 03:29:27;;;;;;;0.30;0.30;;;;;;;19.52;49.92;94605.59;5013975;28;99070;-61
2021/04/13 03:31:52;;;;;;;0.20;0.20;;;;;;;19.44;50.07;94599.34;4998855;28;96845;-61
2021/04/13 03:34:18;;;;;;;0.20;0.20;;;;;;;19.41;50.15;94597.41;5014771;28;97047;-61
2021/04/13 03:36:44;;;;;;;0.20;0.20;;;;;;;19.46;50.19;94597.00;5013968;28;99279;-61
2021/04/13 03:39:13;;;;;;;0.20;0.20;;;;;;;19.46;50.23;94597.00;4997241;28;99741;-61
2021/04/13 03:41:45;;;;;;;0.20;0.20;;;;;;;19.47;50.31;94598.56;5013971;28;96645;-61
2021/04/13 03:44:11;;;;;;;0.20;0.20;;;;;;;19.58;50.29;94593.06;5015570;28;96924;-61
2021/04/13 03:46:37;;;;;;;0.30;0.30;;;;;;;19.47;50.91;94604.03;4996957;28;99557;-61
2021/04/13 03:49:06;;;;;;;0.30;0.30;;;;;;;19.47;50.91;94595.03;4997184;28;99211;-61
2021/04/13 03:51:34;;;;;;;0.28;0.28;;;;;;;19.46;51.12;94599.75;4997501;28;96794;-62
2021/04/13 03:54:00;;;;;;;0.20;0.20;;;;;;;19.41;51.22;94605.59;4997641;28;97034;-61
2021/04/13 03:56:26;;;;;;;1.35;0.30;;;;;;;19.41;51.47;94605.59;5013522;28;99738;-61
2021/04/13 03:58:58;;;;;;;0.20;0.20;;;;;;;19.47;51.38;94603.25;5015479;28;99375;-61
2021/04/13 04:01:28;;;;;;;0.20;0.20;;;;;;;19.47;51.36;94604.03;5015311;28;96793;-61
2021/04/13 04:03:55;;;;;;;0.22;0.22;;;;;;;19.45;51.41;94611.88;5015246;28;96914;-61
2021/04/13 04:07:05;;;;;;;0.30;0.30;;;;;;;19.54;51.19;94603.25;5013130;28;99400;-61
2021/04/13 04:09:31;;;;;;;0.22;0.22;;;;;;;19.63;51.12;94605.59;5014824;28;99283;-61
2021/04/13 04:12:01;;;;;;;0.20;0.20;;;;;;;19.57;51.18;94607.16;5015024;28;96684;-61
2021/04/13 04:14:28;;;;;;;0.30;0.30;;;;;;;19.60;51.21;94618.09;4997351;28;97024;-61
2021/04/13 04:17:13;;;;;;;0.30;0.30;;;;;;;19.66;51.05;94610.28;5013265;28;99654;-61
2021/04/13 04:19:39;;;;;;;0.20;0.20;;;;;;;19.65;51.02;94614.97;5014601;28;98999;-61
2021/04/13 04:22:06;;;;;;;0.30;0.30;;;;;;;19.66;51.31;94615.78;4997378;28;96713;-61
2021/04/13 04:24:34;;;;;;;0.28;0.28;;;;;;;19.59;51.15;94615.78;5015233;28;96894;-61
2021/04/13 04:27:05;;;;;;;0.30;0.30;;;;;;;19.66;51.29;94621.25;5013210;28;99029;-61
2021/04/13 04:30:03;;;;;;;0.20;0.20;;;;;;;19.60;51.39;94631.03;5017971;28;99331;-61
2021/04/13 04:32:29;;;;;;;0.20;0.20;;;;;;;19.62;51.48;94625.94;5017756;28;96644;-63
2021/04/13 04:34:58;;;;;;;0.20;0.20;;;;;;;19.52;51.71;94633.78;5018489;28;96858;-62
2021/04/13 04:37:46;;;;;;;0.28;0.28;;;;;;;19.53;51.83;94629.88;5017725;28;99310;-62
2021/04/13 04:40:15;;;;;;;0.30;0.30;;;;;;;19.52;51.97;94628.31;5017792;28;99747;-63
2021/04/13 04:43:02;;;;;;;0.30;0.30;;;;;;;19.52;51.81;94622.81;5018234;28;96727;-62
2021/04/13 04:45:32;;;;;;;0.20;0.20;;;;;;;19.47;52.00;94622.41;5018161;28;96718;-62
2021/04/13 04:47:57;;;;;;;0.20;0.20;;;;;;;19.47;52.01;94620.47;5017652;28;99446;-62
2021/04/13 04:50:23;;;;;;;0.30;0.30;;;;;;;19.46;52.03;94618.13;5017485;28;99419;-62
2021/04/13 04:52:48;;;;;;;0.30;0.30;;;;;;;19.47;52.10;94625.94;5017677;28;96903;-62
2021/04/13 04:55:14;;;;;;;0.30;0.30;;;;;;;19.43;52.19;94618.94;5018316;28;96907;-62
2021/04/13 04:57:40;;;;;;;0.28;0.28;;;;;;;19.43;52.38;94622.44;5017011;28;99322;-61
2021/04/13 05:00:06;;;;;;;0.20;0.20;;;;;;;19.43;52.49;94616.19;5017516;28;99523;-63
2021/04/13 05:02:33;;;;;;;0.30;0.30;;;;;;;19.39;52.39;94616.16;5017976;28;96660;-62
2021/04/13 05:04:58;;;;;;;0.20;0.20;;;;;;;19.40;52.44;94620.47;5018096;28;96737;-62
2021/04/13 05:07:24;;;;;;;0.20;0.20;;;;;;;19.40;52.51;94612.25;5017311;28;99510;-62
2021/04/13 05:09:49;;;;;;;0.20;0.20;;;;;;;19.39;52.69;94608.75;5017324;28;99252;-62
2021/04/13 05:12:15;;;;;;;0.20;0.20;;;;;;;19.41;52.75;94605.59;5017803;28;96595;-62
2021/04/13 05:14:40;;;;;;;0.30;0.30;;;;;;;19.39;52.83;94602.47;5018270;28;96910;-62
2021/04/13 05:17:06;;;;;;;0.20;0.20;;;;;;;19.42;52.82;94596.22;5017384;28;99586;-62
2021/04/13 05:19:31;;;;;;;0.30;0.30;;;;;;;19.44;52.91;94593.88;5017453;28;99520;-63
2021/04/13 05:21:57;;;;;;;0.30;0.30;;;;;;;19.44;52.79;94590.34;5017309;28;96672;-63
2021/04/13 05:24:22;;;;;;;0.30;0.30;;;;;;;19.47;52.90;94587.59;5017532;28;96924;-62
2021/04/13 05:26:48;;;;;;;0.30;0.30;;;;;;;19.48;52.76;94589.16;5017239;28;99766;-62
2021/04/13 05:29:13;;;;;;;0.20;0.20;;;;;;;19.57;52.60;94596.22;5017007;28;99339;-63
2021/04/13 05:31:40;;;;;;;0.20;0.20;;;;;;;19.68;52.35;94596.97;5017690;28;96638;-62
2021/04/13 05:34:07;;;;;;;0.20;0.20;;;;;;;19.77;51.93;94593.81;5017247;28;96969;-61
2021/04/13 05:36:34;;;;;;;0.20;0.20;;;;;;;19.81;51.90;94589.88;5016957;28;99593;-65
2021/04/13 05:38:59;;;;;;;0.20;0.20;;;;;;;19.85;51.80;94593.41;4998715;28;99470;-62
2021/04/13 05:41:25;;;;;;;0.20;0.20;;;;;;;19.92;51.73;94583.63;5016259;28;97256;-61
2021/04/13 05:43:50;;;;;;;0.20;0.20;;;;;;;19.91;51.77;94582.06;4999320;28;97022;-63
2021/04/13 05:46:17;;;;;;;0.30;0.30;;;;;;;19.96;51.45;94581.66;4998392;28;99052;-63
2021/04/13 05:48:42;;;;;;;0.30;0.30;;;;;;;19.85;51.93;94579.69;4999203;28;99360;-62
2021/04/13 05:51:08;;;;;;;0.20;0.20;;;;;;;19.87;51.87;94582.03;5016619;28;96890;-62
2021/04/13 05:53:33;;;;;;;0.30;0.30;;;;;;;19.75;52.19;94591.44;5017333;28;97503;-62
2021/04/13 05:55:59;;;;;;;0.30;0.30;;;;;;;19.67;52.37;94573.50;5016637;28;99516;-62
2021/04/13 05:58:35;;;;;;;0.20;0.20;;;;;;;19.68;52.51;94580.53;5016668;28;99101;-62
2021/04/13 06:01:05;;;;;;;0.20;0.20;;;;;;;19.60;52.89;94574.28;5000613;28;96719;-62
2021/04/13 06:03:31;;;;;;;0.30;0.30;;;;;;;19.58;52.81;94549.22;4999788;28;96952;-62
2021/04/13 06:05:57;;;;;;;0.20;0.20;;;;;;;19.59;52.98;94558.25;4998536;28;99558;-62
2021/04/13 06:08:25;;;;;;;0.20;0.20;;;;;;;19.57;53.26;94555.13;5015242;28;98976;-62
2021/04/13 06:10:53;;;;;;;0.20;0.20;;;;;;;19.57;53.43;94563.34;5016249;28;97689;-62
2021/04/13 06:13:18;;;;;;;0.20;0.20;;;;;;;19.54;53.42;94560.19;5015409;28;96925;-62
2021/04/13 06:15:44;;;;;;;0.20;0.20;;;;;;;19.66;53.28;94558.22;5015104;28;99592;-63
2021/04/13 06:18:09;;;;;;;0.20;0.20;;;;;;;19.75;52.96;94558.56;5016361;28;99135;-62
2021/04/13 06:20:35;;;;;;;0.20;0.20;;;;;;;19.84;52.61;94556.19;5016802;28;96821;-62
2021/04/13 06:23:00;;;;;;;0.20;0.20;;;;;;;19.76;53.14;94542.94;5017214;28;97570;-62
2021/04/13 06:25:28;;;;;;;0.20;0.20;;;;;;;19.70;53.19;94539.81;5016313;28;99491;-63
2021/04/13 06:27:53;;;;;;;0.32;0.32;;;;;;;19.67;53.43;94513.22;5016308;28;99304;-63
2021/04/13 06:30:20;;;;;;;0.30;0.30;;;;;;;19.62;53.47;94506.16;5016696;28;96502;-63
2021/04/13 06:32:45;;;;;;;0.30;0.30;;;;;;;19.69;53.26;94488.94;5016638;28;96929;-63
2021/04/13 06:35:11;;;;;;;0.30;0.30;;;;;;;19.68;53.54;94487.38;5015447;28;99524;-63
2021/04/13 06:37:38;;;;;;;0.20;0.20;;;;;;;19.70;53.37;94490.50;5016004;28;99338;-63
2021/04/13 06:40:05;;;;;;;0.30;0.30;;;;;;;19.62;53.25;94495.19;5016441;28;96727;-63
2021/04/13 06:42:30;;;;;;;0.25;0.25;;;;;;;19.66;53.44;94500.69;5016248;28;96876;-63
2021/04/13 06:45:37;;;;;;;0.30;0.30;;;;;;;19.63;53.64;94513.22;5015791;28;99561;-63
2021/04/13 06:48:22;;;;;;;0.22;0.22;;;;;;;19.61;53.78;94520.28;5004539;28;99135;-63
2021/04/13 06:50:53;;;;;;;0.20;0.20;;;;;;;19.60;53.73;94524.19;4997630;28;96664;-63
2021/04/13 06:53:56;;;;;;;0.20;0.20;;;;;;;19.60;53.74;94529.66;4998863;28;96854;-63
2021/04/13 06:56:37;;;;;;;;;;;;;;;19.60;53.61;94532.41;5016073;28;99028;-63
2021/04/13 06:59:20;;;;;;;0.30;0.30;;;;;;;19.57;53.66;94519.50;5014522;28;99262;-63
2021/04/13 07:01:52;;;;;;;0.20;0.20;;;;;;;19.49;53.96;94525.00;5015733;28;96982;-64
2021/04/13 07:04:22;;;;;;;;;;;;;;;19.53;53.99;94514.81;5015362;28;97818;-63
2021/04/13 07:07:07;;;;;;;0.20;0.20;;;;;;;19.49;54.08;94508.56;5015654;28;99535;-63
2021/04/13 07:09:55;;;;;;;0.20;0.20;;;;;;;19.57;54.08;94508.53;5014264;28;99055;-62
2021/04/13 07:12:27;;;;;;;0.30;0.30;;;;;;;19.51;54.25;94506.19;5015946;28;96665;-63
2021/04/13 07:14:59;;;;;;;0.25;0.25;;;;;;;19.55;54.01;94506.97;5016070;28;96951;-63
2021/04/13 07:17:43;;;;;;;0.20;0.20;;;;;;;19.53;54.11;94494.84;5015548;28;99357;-63
2021/04/13 07:20:12;;;;;;;0.20;0.20;;;;;;;19.52;54.12;94499.53;5015640;28;99415;-63
2021/04/13 07:22:43;;;;;;;0.20;0.20;;;;;;;19.55;54.19;94485.06;5014609;28;96732;-63
2021/04/13 07:25:20;;;;;;;0.20;0.20;;;;;;;19.57;54.16;94486.63;4997956;28;96916;-63
2021/04/13 07:27:48;;;;;;;0.20;0.20;;;;;;;19.54;54.04;94483.50;5013841;28;100046;-63
2021/04/13 07:30:27;;;;;;;0.20;0.20;;;;;;;19.59;54.07;94484.28;5013904;28;99345;-63
2021/04/13 07:32:57;;;;;;;0.43;0.20;;;;;;;19.55;53.94;94482.31;5014243;28;96749;-63
2021/04/13 07:35:23;;;;;;;0.20;0.20;;;;;;;19.62;53.93;94484.25;5015579;28;96861;-63
2021/04/13 07:37:50;;;;;;;0.20;0.20;;;;;;;19.59;53.83;94478.78;5013874;28;99581;-63
2021/04/13 07:40:27;;;;;;;0.20;0.20;;;;;;;19.60;54.01;94480.34;5015029;28;99314;-64
2021/04/13 07:43:06;;;;;;;0.20;0.20;;;;;;;19.60;53.96;94474.88;5014519;28;96730;-64
2021/04/13 07:45:53;;;;;;;0.20;0.20;;;;;;;19.61;53.98;94481.91;4999517;28;96997;-64
2021/04/13 07:48:19;;;;;;;0.25;0.25;;;;;;;19.64;53.85;94478.38;5015232;28;96859;-64
2021/04/13 07:51:20;;;;;;;0.15;0.15;;;;;;;19.65;54.01;94479.94;5014745;28;99318;-65
2021/04/13 07:54:13;;;;;;;0.20;0.20;;;;;;;19.62;53.98;94480.75;4980354;28;97014;-63
2021/04/13 07:56:47;;;;;;;0.20;0.20;;;;;;;19.64;53.98;94464.69;5015291;28;96952;-62
2021/04/13 07:59:33;;;;;;;0.20;0.20;;;;;;;19.70;53.88;94463.09;5014731;28;99399;-63
2021/04/13 08:01:59;;;;;;;0.20;0.20;;;;;;;19.67;53.77;94470.13;5014334;28;99544;-63
2021/04/13 08:04:26;;;;;;;0.20;0.20;;;;;;;19.74;54.04;94468.56;5015125;28;96676;-64
2021/04/13 08:07:11;;;;;;;0.20;0.20;;;;;;;19.72;53.79;94471.69;5015261;28;96953;-64
2021/04/13 08:09:39;;;;;;;0.20;0.20;;;;;;;19.69;53.94;94469.75;5014892;28;99289;-64
2021/04/13 08:12:08;;;;;;;0.20;0.20;;;;;;;19.66;53.86;94470.56;5014866;28;99209;-63
2021/04/13 08:15:04;;;;;;;0.20;0.20;;;;;;;19.65;54.09;94466.25;5014934;28;96906;-63
2021/04/13 08:17:35;;;;;;;0.20;0.20;;;;;;;19.65;54.21;94460.75;5008643;28;97041;-63
2021/04/13 08:20:02;;;;;;;0.20;0.20;;;;;;;19.64;54.14;94468.19;5014047;28;99660;-62
2021/04/13 08:22:27;;;;;;;0.20;0.20;;;;;;;19.67;54.28;94474.84;5014500;28;99667;-62
2021/04/13 08:24:55;;;;;;;0.20;0.20;;;;;;;19.71;54.16;94475.63;5015506;28;97267;-62
2021/04/13 08:27:38;;;;;;;0.20;0.20;;;;;;;19.71;54.09;94470.13;5015136;28;96948;-62
2021/04/13 08:30:22;;;;;;;0.17;0.17;;;;;;;19.72;54.17;94471.69;5014412;28;99299;-62
2021/04/13 08:33:09;;;;;;;0.20;0.20;;;;;;;19.70;54.26;94468.56;5014215;28;99003;-62
2021/04/13 08:35:38;;;;;;;0.20;0.20;;;;;;;19.72;54.20;94470.91;5013520;28;96901;-62
2021/04/13 08:38:32;;;;;;;0.20;0.20;;;;;;;19.70;54.26;94463.88;5013864;28;96913;-62
2021/04/13 08:41:02;;;;;;;0.10;0.10;;;;;;;19.67;54.29;94452.94;5014141;28;99755;-62
2021/04/13 08:43:31;;;;;;;0.20;0.20;;;;;;;19.70;54.22;94460.34;5013205;28;99369;-62
2021/04/13 08:46:41;;;;;;;0.20;0.20;;;;;;;19.75;54.13;94459.91;5014041;28;96890;-62
2021/04/13 08:49:22;;;;;;;0.20;0.20;;;;;;;19.73;54.19;94456.03;5012740;28;96904;-63
2021/04/13 08:51:50;;;;;;;0.22;0.22;;;;;;;19.69;54.18;94451.34;5014068;28;99054;-62
2021/04/13 08:54:21;;;;;;;0.20;0.20;;;;;;;19.67;54.25;94450.97;5012536;28;99216;-62
2021/04/13 08:57:21;;;;;;;0.30;0.30;;;;;;;19.69;54.27;94456.06;5014890;28;96637;-62
2021/04/13 08:59:52;;;;;;;0.20;0.20;;;;;;;19.68;54.33;94449.00;5009702;28;96828;-63
2021/04/13 09:02:29;;;;;;;0.30;0.30;;;;;;;19.71;54.25;94450.97;5014136;28;99968;-63
2021/04/13 09:05:05;;;;;;;0.20;0.20;;;;;;;19.70;54.44;94452.13;5014420;28;99529;-63
2021/04/13 09:07:57;;;;;;;0.20;0.20;;;;;;;19.71;54.04;94448.22;5014651;28;96878;-63
2021/04/13 09:10:28;;;;;;;0.10;0.10;;;;;;;19.73;54.39;94445.06;4992443;28;96979;-63
2021/04/13 09:13:15;;;;;;;0.13;0.13;;;;;;;19.75;54.22;94440.72;5013548;28;99468;-63
2021/04/13 09:15:54;;;;;;;0.17;0.17;;;;;;;19.71;54.23;94437.25;5015089;28;99458;-63
2021/04/13 09:18:28;;;;;;;0.20;0.20;;;;;;;19.74;54.25;94441.91;5016604;28;96664;-63
2021/04/13 09:21:21;;;;;;;0.20;0.20;;;;;;;19.72;54.40;94435.28;5017769;28;96920;-63
2021/04/13 09:24:10;;;;;;;0.20;0.20;;;;;;;19.73;54.45;94434.88;5012748;28;99718;-63
2021/04/13 09:26:43;;;;;;;0.20;0.20;;;;;;;19.70;54.41;94430.22;5016052;28;98955;-63
2021/04/13 09:29:47;;;;;;;0.20;0.20;;;;;;;19.68;54.40;94432.56;5016648;28;96983;-63
2021/04/13 09:32:37;;;;;;;0.20;0.20;;;;;;;19.69;54.58;94434.91;5017867;28;97180;-60
2021/04/13 09:35:02;;;;;;;0.20;0.20;;;;;;;19.71;54.48;94429.03;5015929;28;99898;-62
2021/04/13 09:37:52;;;;;;;0.25;0.25;;;;;;;19.72;54.49;94427.84;5017020;28;99660;-62
2021/04/13 09:40:57;;;;;;;0.15;0.15;;;;;;;19.78;54.41;94426.25;5015643;28;97006;-61
2021/04/13 09:43:58;;;;;;;0.10;0.10;;;;;;;19.73;54.45;94423.91;5017632;28;96732;-60
2021/04/13 09:46:45;;;;;;;0.20;0.20;;;;;;;19.75;54.48;94427.03;5015407;28;99902;-60
2021/04/13 09:49:37;;;;;;;0.20;0.20;;;;;;;19.66;54.52;94421.22;5016613;28;99122;-59
2021/04/13 09:52:05;;;;;;;0.30;0.30;;;;;;;19.71;54.49;94426.28;5016158;28;96674;-58
2021/04/13 09:54:42;;;;;;;0.10;0.10;;;;;;;19.75;54.60;94423.53;5017204;28;96914;-59
2021/04/13 09:57:23;;;;;;;0.20;0.20;;;;;;;19.79;54.44;94427.78;5016611;28;99739;-59
2021/04/13 09:59:54;;;;;;;0.20;0.20;;;;;;;19.75;54.53;94427.03;5017028;28;99490;-59
2021/04/13 10:02:28;;;;;;;0.25;0.25;;;;;;;19.75;54.38;94424.28;5017313;28;96681;-59
2021/04/13 10:04:59;;;;;;;0.20;0.20;;;;;;;19.76;54.48;94423.13;5000271;28;96865;-61
2021/04/13 10:07:35;;;;;;;0.10;0.10;;;;;;;19.77;54.54;94426.66;5016022;28;99803;-62
2021/04/13 10:10:02;;;;;;;1.25;1.15;;;;;;;19.78;53.48;94423.50;5016612;28;99520;-57
2021/04/13 10:12:39;;;;;;;7.57;5.00;;;;;;;19.74;44.48;94425.47;4998100;28;96727;-56
2021/04/13 13:35:28;;;;;;;2.92;2.70;;;;;;;19.76;45.28;94228.56;4851559;29;97167;-58
2021/04/13 13:59:24;;;;;;;22.50;19.35;;;;;;;19.67;45.62;94255.66;4123862;26;97704;-51
2021/04/13 18:20:34;;;;;;;1.60;1.50;;;;;;;19.44;44.54;94221.38;4997412;23;98741;-72
2021/04/13 18:23:55;;;;;;;22.95;15.48;;;;;;;18.17;51.26;94232.84;5034635;28;96642;-69
2021/04/13 18:26:35;;;;;;;24.52;17.83;;;;;;;17.00;54.27;94241.31;5031308;28;96890;-74
2021/04/13 18:29:03;;;;;;;27.80;18.58;;;;;;;15.66;57.05;94235.88;5031063;28;99763;-68
2021/04/13 18:31:38;;;;;;;29.27;21.50;;;;;;;14.91;59.19;94230.53;5029775;28;99394;-70
2021/04/13 18:34:28;;;;;;;31.13;21.83;;;;;;;14.04;61.04;94230.22;5011938;28;96792;-68
2021/04/13 18:36:55;;;;;;;28.40;20.10;;;;;;;13.59;62.11;94227.22;5032196;27;96936;-69
2021/04/13 18:39:26;;;;;;;31.25;21.83;;;;;;;13.16;63.26;94226.47;5029729;28;99771;-70
2021/04/13 18:42:12;;;;;;;29.25;21.17;;;;;;;12.71;64.46;94245.78;5013435;28;99521;-68
2021/04/13 18:44:44;;;;;;;29.63;19.10;;;;;;;12.40;65.48;94239.38;5030589;27;96832;-70
2021/04/13 18:47:12;;;;;;;21.27;17.08;;;;;;;12.15;66.32;94261.28;5014519;28;96900;-69
2021/04/13 18:49:39;;;;;;;27.98;16.67;;;;;;;11.82;67.19;94250.84;5013805;28;99985;-68
2021/04/13 18:52:14;;;;;;;24.88;17.70;;;;;;;11.69;68.48;94255.59;5013250;28;99584;-69
2021/04/13 18:54:53;;;;;;;27.85;19.42;;;;;;;11.55;69.53;94275.75;5014431;28;96724;-70
2021/04/13 18:57:23;;;;;;;27.05;17.75;;;;;;;11.34;70.83;94291.47;5030692;28;96854;-69
2021/04/13 19:00:10;;;;;;;30.00;20.50;;;;;;;11.16;71.91;94280.97;5013428;28;99337;-70
2021/04/13 19:02:41;;;;;;;19.50;11.40;;;;;;;10.83;72.50;94274.69;5029965;28;99928;-72
2021/04/13 19:05:08;;;;;;;9.88;6.03;;;;;;;10.69;72.48;94271.59;5030624;28;96741;-70
2021/04/13 19:08:13;;;;;;;10.70;6.60;;;;;;;10.62;72.57;94269.50;5031469;28;97478;-70
2021/04/13 19:10:43;;;;;;;7.10;4.30;;;;;;;10.37;72.52;94253.34;5028441;28;98992;-69
2021/04/13 19:13:09;;;;;;;6.45;4.47;;;;;;;10.33;72.74;94251.69;5032018;27;99394;-71
2021/04/13 19:15:39;;;;;;;9.18;5.10;;;;;;;10.32;72.72;94250.09;5014270;28;96765;-71
2021/04/13 19:18:18;;;;;;;4.35;3.00;;;;;;;10.14;72.40;94249.59;5015271;28;96762;-71
2021/04/13 19:20:50;;;;;;;2.30;2.10;;;;;;;10.12;72.01;94246.44;5025785;28;99343;-70
2021/04/13 19:23:34;;;;;;;2.97;2.15;;;;;;;10.03;71.70;94260.84;5010808;28;99147;-69
2021/04/13 19:26:38;;;;;;;4.68;2.00;;;;;;;9.89;70.95;94249.63;5011015;28;96817;-71
2021/04/13 19:29:12;;;;;;;2.72;2.50;;;;;;;9.84;71.17;94247.94;5027090;28;96745;-69
2021/04/13 19:31:50;;;;;;;3.97;2.75;;;;;;;9.64;71.05;94228.06;5027118;28;99395;-70
2021/04/13 19:34:17;;;;;;;2.95;2.13;;;;;;;9.65;70.61;94229.66;5019042;28;97769;-71
2021/04/13 19:36:55;;;;;;;6.93;2.97;;;;;;;9.67;71.15;94216.63;5013904;28;97503;-70
2021/04/13 19:39:22;;;;;;;3.30;2.13;;;;;;;9.71;70.95;94233.69;4997522;28;96771;-69
2021/04/13 19:41:57;;;;;;;4.88;2.03;;;;;;;9.75;70.78;94221.06;5013195;28;99324;-71
2021/04/13 19:44:28;;;;;;;4.32;2.17;;;;;;;9.64;70.37;94222.69;4997869;28;99593;-75
2021/04/13 19:46:55;;;;;;;3.58;2.40;;;;;;;9.69;70.48;94214.38;4997228;28;98001;-74
2021/04/13 19:49:23;;;;;;;3.45;2.42;;;;;;;9.78;70.64;94212.31;4997222;28;96902;-74
2021/04/13 19:51:54;;;;;;;5.70;2.35;;;;;;;9.87;70.35;94220.28;4996594;28;99281;-74
2021/04/13 19:54:47;;;;;;;2.42;2.13;;;;;;;9.92;69.98;94227.34;4996468;28;99326;-74
2021/04/13 19:57:15;;;;;;;2.75;2.00;;;;;;;9.88;69.63;94212.97;5008168;28;96951;-74
2021/04/13 19:59:43;;;;;;;2.25;2.03;;;;;;;9.79;68.83;94213.88;4997282;28;97007;-74
2021/04/13 20:02:20;;;;;;;6.05;2.20;;;;;;;9.93;68.87;94212.75;5029558;28;98884;-74